Time;durP1;ratioP1;P1;durP2;ratioP2;P2;SDS_P1;SDS_P2;PMS_P1;PMS_P2;Temp;Humidity;BMP_temperature;BMP_pressure;BME280_temperature;BME280_humidity;BME280_pressure;Samples;Min_cycle;Max_cycle;Signal;HPM_P1;HPM_P2
2021/04/07 02:46:54;;;;;;;6.53;3.63;;;0.80;99.90;;;;;;5196743;23;91906;-88
2021/04/07 02:49:20;;;;;;;5.55;3.80;;;0.80;99.90;;;;;;4868522;29;86533;-88
2021/04/07 02:51:46;;;;;;;4.35;3.60;;;0.80;99.90;;;;;;4868443;29;86900;-87
2021/04/07 02:54:12;;;;;;;5.38;4.10;;;0.90;99.90;;;;;;4868568;29;87140;-87
2021/04/07 02:56:38;;;;;;;7.63;3.30;;;0.90;99.90;;;;;;4860646;29;87732;-88
2021/04/07 02:59:04;;;;;;;4.30;3.50;;;;;;;;;;4847523;29;87029;-87
2021/04/07 03:01:30;;;;;;;4.93;3.83;;;1.00;99.90;;;;;;4851301;29;86352;-88
2021/04/07 03:03:56;;;;;;;4.82;3.50;;;1.00;99.90;;;;;;4867925;29;88348;-87
2021/04/07 03:06:21;;;;;;;6.05;3.50;;;1.10;99.90;;;;;;4834207;29;90711;-87
2021/04/07 03:08:48;;;;;;;6.32;3.20;;;1.00;99.90;;;;;;4850151;29;86844;-86
2021/04/07 03:11:14;;;;;;;6.40;3.38;;;1.00;99.90;;;;;;4852685;29;88398;-87
2021/04/07 03:13:40;;;;;;;3.95;3.15;;;0.90;99.90;;;;;;4868335;29;88021;-87
2021/04/07 03:16:06;;;;;;;4.30;2.65;;;0.90;99.90;;;;;;4864754;29;87383;-88
2021/04/07 03:18:31;;;;;;;3.80;2.47;;;0.90;99.90;;;;;;4850389;29;86815;-86
2021/04/07 03:20:57;;;;;;;2.45;2.15;;;0.80;99.90;;;;;;4850105;29;87059;-87
2021/04/07 03:23:23;;;;;;;2.60;2.05;;;0.80;99.90;;;;;;4850055;29;86722;-87
2021/04/07 03:25:50;;;;;;;2.83;2.40;;;0.80;99.90;;;;;;4835917;29;87823;-86
2021/04/07 03:28:17;;;;;;;3.97;2.60;;;0.80;99.90;;;;;;4851082;29;86236;-88
2021/04/07 03:30:50;;;;;;;5.95;2.65;;;0.80;99.90;;;;;;4856707;29;86498;-87
2021/04/07 03:33:18;;;;;;;3.58;2.30;;;0.80;99.90;;;;;;4868931;29;88408;-88
2021/04/07 03:35:45;;;;;;;2.60;2.22;;;0.80;99.90;;;;;;4869613;29;87915;-86
2021/04/07 03:38:11;;;;;;;3.20;2.33;;;0.80;99.90;;;;;;4844803;29;86901;-87
2021/04/07 03:40:37;;;;;;;3.15;2.20;;;0.80;99.90;;;;;;4852595;29;86374;-87
2021/04/07 03:43:08;;;;;;;2.95;2.28;;;0.80;99.90;;;;;;4850614;29;88324;-87
2021/04/07 03:45:33;;;;;;;2.75;2.25;;;0.70;99.90;;;;;;4832488;29;90507;-87
2021/04/07 03:48:00;;;;;;;3.75;2.75;;;0.70;99.90;;;;;;4851277;29;86837;-86
2021/04/07 03:50:26;;;;;;;4.60;2.53;;;0.80;99.90;;;;;;4838652;29;86481;-87
2021/04/07 03:52:52;;;;;;;4.55;2.83;;;0.60;99.90;;;;;;4835994;29;86899;-87
2021/04/07 03:55:18;;;;;;;2.75;2.55;;;0.60;99.90;;;;;;4835126;29;87188;-86
2021/04/07 03:57:44;;;;;;;4.13;2.85;;;0.60;99.90;;;;;;4840128;29;86839;-86
2021/04/07 04:00:10;;;;;;;3.47;2.75;;;0.60;99.90;;;;;;4848982;29;87743;-86
2021/04/07 04:02:36;;;;;;;3.17;2.88;;;0.60;99.90;;;;;;4844218;29;87390;-87
2021/04/07 04:05:02;;;;;;;3.78;3.00;;;0.60;99.90;;;;;;4854517;29;87463;-86
2021/04/07 04:07:28;;;;;;;3.75;2.40;;;0.60;99.90;;;;;;4850979;29;86847;-86
2021/04/07 04:09:53;;;;;;;2.88;2.22;;;0.50;99.90;;;;;;4849254;29;87182;-86
2021/04/07 04:12:19;;;;;;;2.47;2.20;;;0.60;99.90;;;;;;4833704;29;89773;-86
2021/04/07 04:14:45;;;;;;;2.47;2.28;;;0.60;99.90;;;;;;4852419;29;86897;-86
2021/04/07 04:17:11;;;;;;;3.97;2.08;;;;;;;;;;4852688;29;86184;-86
2021/04/07 04:19:36;;;;;;;3.42;2.08;;;0.70;99.90;;;;;;4851126;29;86816;-87
2021/04/07 04:22:04;;;;;;;3.08;1.80;;;0.70;99.90;;;;;;4836730;29;88717;-87
2021/04/07 04:24:30;;;;;;;3.20;2.10;;;;;;;;;;4849751;29;88384;-87
2021/04/07 04:26:56;;;;;;;3.95;2.65;;;0.80;99.90;;;;;;4850668;29;87028;-88
2021/04/07 04:29:22;;;;;;;3.42;2.88;;;0.80;99.90;;;;;;4850459;29;86997;-85
2021/04/07 04:31:47;;;;;;;4.05;2.03;;;0.80;99.90;;;;;;4845821;29;87735;-87
2021/04/07 04:34:16;;;;;;;2.58;2.10;;;0.80;99.90;;;;;;4831942;29;87263;-89
2021/04/07 04:36:42;;;;;;;5.20;2.28;;;0.90;99.90;;;;;;4827078;29;86887;-86
2021/04/07 04:39:07;;;;;;;2.72;2.20;;;1.00;99.90;;;;;;4849548;29;87147;-87
2021/04/07 04:41:33;;;;;;;2.38;2.17;;;1.00;99.90;;;;;;4849052;29;88609;-87
2021/04/07 04:43:59;;;;;;;3.03;2.45;;;1.00;99.90;;;;;;4848910;29;87088;-86
2021/04/07 04:46:24;;;;;;;2.70;2.08;;;1.00;99.90;;;;;;4851185;29;87077;-87
2021/04/07 04:48:50;;;;;;;2.60;2.15;;;1.10;99.90;;;;;;4865067;29;88106;-87
2021/04/07 04:51:17;;;;;;;3.65;2.25;;;1.20;99.90;;;;;;4850152;29;87308;-88
2021/04/07 04:53:51;;;;;;;2.58;2.08;;;1.00;99.90;;;;;;4850031;29;87490;-87
2021/04/07 04:56:17;;;;;;;3.33;2.28;;;1.00;99.90;;;;;;4850503;29;86923;-88
2021/04/07 04:58:42;;;;;;;2.72;2.30;;;1.10;99.90;;;;;;4849201;29;86868;-86
2021/04/07 05:01:09;;;;;;;5.20;2.42;;;1.10;99.90;;;;;;4844998;29;88998;-88
2021/04/07 05:03:36;;;;;;;3.72;2.25;;;1.10;99.90;;;;;;4848494;29;88595;-87
2021/04/07 05:06:02;;;;;;;4.30;2.28;;;1.10;99.90;;;;;;4849500;29;86587;-87
2021/04/07 05:08:28;;;;;;;2.55;2.15;;;1.10;99.90;;;;;;4849777;29;87136;-87
2021/04/07 05:10:54;;;;;;;3.03;2.20;;;1.10;99.90;;;;;;4836058;29;88239;-87
2021/04/07 05:13:19;;;;;;;3.58;2.33;;;1.20;99.90;;;;;;4833713;29;90257;-88
2021/04/07 05:15:45;;;;;;;2.90;2.60;;;1.20;99.90;;;;;;4850190;29;87106;-87
2021/04/07 05:18:15;;;;;;;2.65;2.28;;;1.20;99.90;;;;;;4867358;29;86419;-87
2021/04/07 05:20:42;;;;;;;2.75;2.38;;;1.20;99.90;;;;;;4833648;29;87706;-87
2021/04/07 05:23:08;;;;;;;3.58;2.60;;;;;;;;;;4843686;29;87355;-89
2021/04/07 05:25:36;;;;;;;4.60;2.42;;;1.20;99.90;;;;;;4849095;29;87057;-90
2021/04/07 05:28:03;;;;;;;2.72;2.40;;;1.30;99.90;;;;;;4832361;29;86995;-89
2021/04/07 05:30:58;;;;;;;2.40;2.20;;;;;;;;;;4851185;29;86289;-88
2021/04/07 05:33:15;;;;;;;2.33;2.10;;;1.30;99.80;;;;;;4847971;29;87102;-90
2021/04/07 05:35:41;;;;;;;5.22;2.30;;;;;;;;;;4835988;29;86813;-90
2021/04/07 05:38:07;;;;;;;3.30;2.45;;;;;;;;;;4836909;29;87812;-89
2021/04/07 05:40:33;;;;;;;2.53;2.10;;;;;;;;;;4834280;29;91170;-90
2021/04/07 05:43:02;;;;;;;3.10;2.17;;;1.30;97.90;;;;;;4852180;29;87477;-90
2021/04/07 05:45:28;;;;;;;2.40;2.17;;;;;;;;;;4834072;29;86684;-90
2021/04/07 05:47:54;;;;;;;3.65;2.42;;;;;;;;;;4852043;29;87183;-90
2021/04/07 05:50:19;;;;;;;3.53;2.33;;;1.20;97.40;;;;;;4835141;29;90780;-90
2021/04/07 05:52:51;;;;;;;4.13;2.85;;;1.30;97.30;;;;;;4852276;29;88343;-88
2021/04/07 05:55:20;;;;;;;2.45;2.25;;;1.30;97.50;;;;;;4852910;29;85924;-91
2021/04/07 05:58:10;;;;;;;2.25;2.03;;;1.30;97.80;;;;;;4842892;29;87104;-87
2021/04/07 06:00:36;;;;;;;2.20;2.00;;;1.40;97.30;;;;;;4820282;29;87791;-87
2021/04/07 06:03:03;;;;;;;2.10;1.90;;;1.40;97.30;;;;;;4847163;29;88144;-87
2021/04/07 06:05:29;;;;;;;4.05;1.88;;;1.50;97.70;;;;;;4827368;29;86830;-86
2021/04/07 06:07:56;;;;;;;4.97;2.50;;;1.60;99.90;;;;;;4850532;29;86923;-89
2021/04/07 06:10:22;;;;;;;3.92;2.20;;;;;;;;;;4846229;29;87685;-87
2021/04/07 06:12:48;;;;;;;4.28;2.55;;;1.70;99.90;;;;;;4833886;29;88913;-87
2021/04/07 06:15:15;;;;;;;3.45;2.20;;;1.60;99.90;;;;;;4850104;29;86527;-86
2021/04/07 06:17:43;;;;;;;4.68;2.63;;;1.50;99.90;;;;;;4832414;29;87104;-87
2021/04/07 06:20:11;;;;;;;3.33;2.67;;;1.50;99.90;;;;;;4850609;29;87027;-87
2021/04/07 06:22:37;;;;;;;4.50;3.17;;;1.50;99.90;;;;;;4850855;29;86930;-87
2021/04/07 06:25:10;;;;;;;5.32;3.13;;;1.50;99.90;;;;;;4851177;29;87037;-87
2021/04/07 06:27:36;;;;;;;4.07;2.78;;;1.50;99.90;;;;;;4850675;29;87682;-88
2021/04/07 06:30:02;;;;;;;3.92;2.97;;;1.50;99.90;;;;;;4849462;29;88642;-87
2021/04/07 06:32:29;;;;;;;5.07;3.00;;;1.40;99.90;;;;;;4849608;29;87256;-87
2021/04/07 06:34:54;;;;;;;4.80;3.30;;;1.30;99.90;;;;;;4851192;29;87014;-88
2021/04/07 06:37:21;;;;;;;5.00;3.20;;;1.20;99.90;;;;;;4849950;29;86840;-87
2021/04/07 06:39:47;;;;;;;3.40;3.05;;;1.20;99.90;;;;;;4849941;29;88504;-87
2021/04/07 06:42:14;;;;;;;3.75;3.17;;;1.10;99.90;;;;;;4850903;29;86897;-87
2021/04/07 06:44:40;;;;;;;6.15;3.13;;;1.00;99.90;;;;;;4851444;29;86036;-87
2021/04/07 06:47:06;;;;;;;4.28;3.05;;;1.20;99.90;;;;;;4830236;29;86938;-87
2021/04/07 06:49:56;;;;;;;3.72;2.80;;;1.20;99.90;;;;;;4823983;29;88622;-87
2021/04/07 06:52:24;;;;;;;4.32;2.80;;;1.30;99.90;;;;;;4830556;29;88721;-88
2021/04/07 06:54:54;;;;;;;4.47;3.03;;;1.30;99.90;;;;;;4829711;29;86914;-88
2021/04/07 06:57:20;;;;;;;4.85;4.35;;;1.40;99.90;;;;;;4830815;29;87029;-88
2021/04/07 06:59:48;;;;;;;4.10;3.55;;;1.60;99.90;;;;;;4832910;29;87682;-87
2021/04/07 07:02:16;;;;;;;4.38;2.85;;;1.70;99.90;;;;;;4830618;29;88289;-88
2021/04/07 07:04:43;;;;;;;5.47;2.95;;;1.90;99.90;;;;;;4828567;29;87008;-88
2021/04/07 07:07:10;;;;;;;2.63;2.38;;;;;;;;;;4822839;29;86963;-88
2021/04/07 07:09:35;;;;;;;4.25;2.88;;;2.30;98.10;;;;;;4828148;29;86321;-89
2021/04/07 07:12:02;;;;;;;6.20;3.13;;;2.40;95.90;;;;;;4822789;29;91479;-88
2021/04/07 07:14:29;;;;;;;3.85;2.28;;;2.30;96.40;;;;;;4831836;29;86708;-88
2021/04/07 07:16:56;;;;;;;4.05;2.58;;;2.50;95.40;;;;;;4831335;29;87740;-88
2021/04/07 07:19:26;;;;;;;2.95;2.70;;;2.50;95.00;;;;;;4819680;29;88110;-88
2021/04/07 07:21:54;;;;;;;4.05;2.40;;;2.60;94.70;;;;;;4811960;29;88485;-89
2021/04/07 07:24:32;;;;;;;5.07;2.70;;;2.60;94.70;;;;;;4832303;29;86714;-89
2021/04/07 07:27:05;;;;;;;3.47;2.50;;;2.80;94.10;;;;;;4830564;29;86359;-88
2021/04/07 07:29:32;;;;;;;4.35;2.70;;;3.10;94.00;;;;;;4831996;29;88198;-88
2021/04/07 07:32:05;;;;;;;2.42;2.08;;;3.20;93.10;;;;;;4831618;29;87265;-88
2021/04/07 07:34:31;;;;;;;3.20;2.80;;;3.30;92.30;;;;;;4833696;29;86098;-88
2021/04/07 07:36:59;;;;;;;5.35;2.85;;;3.20;93.00;;;;;;4832764;29;87052;-87
2021/04/07 07:39:33;;;;;;;4.22;3.05;;;3.20;92.80;;;;;;4835438;29;89923;-87
2021/04/07 07:42:08;;;;;;;3.65;2.72;;;3.00;94.60;;;;;;4828648;29;87471;-87
2021/04/07 07:44:36;;;;;;;3.65;2.50;;;3.00;93.90;;;;;;4823256;29;86952;-87
2021/04/07 07:47:18;;;;;;;2.80;2.53;;;3.10;93.60;;;;;;4828632;29;87064;-87
2021/04/07 07:50:13;;;;;;;3.72;2.58;;;3.10;93.10;;;;;;4843671;29;87383;-87
2021/04/07 07:52:42;;;;;;;4.82;2.55;;;3.30;91.90;;;;;;4820521;29;88802;-88
2021/04/07 07:55:19;;;;;;;3.42;2.50;;;3.30;91.80;;;;;;4836479;29;86932;-87
2021/04/07 07:57:58;;;;;;;3.85;2.75;;;4.10;90.40;;;;;;4836299;29;86750;-87
2021/04/07 08:00:27;;;;;;;2.72;2.53;;;5.30;83.00;;;;;;4835357;29;87252;-87
2021/04/07 08:02:53;;;;;;;3.53;2.25;;;7.10;77.60;;;;;;4835572;29;87239;-88
2021/04/07 08:05:21;;;;;;;4.28;2.30;;;8.20;68.40;;;;;;4845417;29;86921;-87
2021/04/07 08:07:47;;;;;;;2.85;2.40;;;8.10;63.60;;;;;;4851671;29;87661;-88
2021/04/07 08:10:14;;;;;;;2.42;2.22;;;8.50;61.50;;;;;;4855339;29;87123;-87
2021/04/07 08:12:42;;;;;;;2.92;2.70;;;7.70;62.50;;;;;;4835776;29;88078;-88
2021/04/07 08:15:13;;;;;;;2.45;2.25;;;7.70;63.10;;;;;;4852793;29;86166;-87
2021/04/07 08:17:39;;;;;;;3.00;2.75;;;;;;;;;;4850644;29;87161;-89
2021/04/07 08:20:07;;;;;;;3.28;2.38;;;7.10;63.40;;;;;;4852969;29;87685;-88
2021/04/07 08:22:36;;;;;;;4.00;2.58;;;6.00;64.20;;;;;;4852846;29;88275;-87
2021/04/07 08:25:13;;;;;;;4.78;2.55;;;5.60;67.80;;;;;;4854180;29;86157;-87
2021/04/07 08:27:41;;;;;;;4.07;2.63;;;5.60;68.80;;;;;;4835007;29;87053;-87
2021/04/07 08:30:07;;;;;;;4.28;2.40;;;5.30;69.30;;;;;;4853853;29;88427;-88
2021/04/07 08:32:33;;;;;;;3.05;2.40;;;5.50;69.70;;;;;;4853223;29;87530;-87
2021/04/07 08:35:00;;;;;;;2.60;2.10;;;5.60;65.70;;;;;;4851275;29;86561;-87
2021/04/07 08:37:29;;;;;;;2.10;1.90;;;6.20;65.60;;;;;;4853807;29;86749;-88
2021/04/07 08:39:55;;;;;;;1.73;1.63;;;7.60;58.50;;;;;;4846269;29;87814;-88
2021/04/07 08:42:22;;;;;;;3.22;2.15;;;9.10;56.40;;;;;;4850153;29;86981;-88
2021/04/07 08:44:49;;;;;;;1.75;1.63;;;11.80;51.30;;;;;;4851017;29;87024;-89
2021/04/07 08:47:29;;;;;;;3.17;2.40;;;13.70;44.90;;;;;;4849533;29;86928;-89
2021/04/07 08:50:06;;;;;;;4.18;2.47;;;14.90;42.10;;;;;;4843891;29;86681;-89
2021/04/07 08:52:48;;;;;;;4.85;4.00;;;17.80;36.50;;;;;;4832753;29;88935;-89
2021/04/07 08:55:27;;;;;;;5.93;2.60;;;17.90;36.70;;;;;;4849319;29;86909;-89
2021/04/07 08:58:06;;;;;;;4.85;2.22;;;19.60;32.70;;;;;;4846159;29;87855;-89
2021/04/07 09:00:37;;;;;;;11.85;4.97;;;20.20;30.00;;;;;;4849648;29;90120;-89
2021/04/07 09:03:10;;;;;;;;;;;20.10;30.20;;;;;;4870516;29;87219;-90
2021/04/07 09:05:42;;;;;;;6.03;2.75;;;19.10;30.50;;;;;;4856069;29;86894;-89
2021/04/07 09:08:08;;;;;;;6.18;3.83;;;;;;;;;;4852316;29;86876;-90
2021/04/07 09:10:41;;;;;;;3.20;2.90;;;18.50;29.70;;;;;;4834912;29;89501;-88
2021/04/07 09:13:32;;;;;;;3.40;3.15;;;16.40;33.50;;;;;;4852011;29;87290;-89
2021/04/07 09:16:04;;;;;;;;;;;15.80;32.60;;;;;;4844539;29;86296;-90
2021/04/07 09:18:48;;;;;;;3.08;2.30;;;13.80;34.70;;;;;;4851980;29;86652;-89
2021/04/07 09:21:17;;;;;;;1.70;1.58;;;13.00;36.70;;;;;;4833769;29;87306;-89
2021/04/07 09:23:50;;;;;;;1.83;1.73;;;13.20;34.50;;;;;;4835022;29;87882;-89
2021/04/07 09:26:19;;;;;;;1.73;1.60;;;14.20;34.40;;;;;;4851830;29;87055;-88
2021/04/07 09:28:53;;;;;;;2.08;1.88;;;14.10;33.70;;;;;;4833929;29;86964;-89
2021/04/07 09:31:21;;;;;;;2.60;1.55;;;13.40;34.40;;;;;;4851190;29;87425;-88
2021/04/07 09:33:53;;;;;;;1.70;1.60;;;11.90;37.00;;;;;;4850734;29;88876;-88
2021/04/07 09:36:26;;;;;;;2.03;1.88;;;11.30;37.70;;;;;;4851151;29;87041;-89
2021/04/07 09:38:55;;;;;;;1.98;1.40;;;12.80;36.90;;;;;;4850969;29;86935;-89
2021/04/07 09:41:23;;;;;;;2.63;1.30;;;14.60;33.10;;;;;;4852240;29;86511;-89
2021/04/07 09:43:49;;;;;;;1.52;1.42;;;16.80;32.30;;;;;;4850632;29;87096;-89
2021/04/07 09:46:15;;;;;;;1.73;1.63;;;18.80;28.80;;;;;;4849835;29;88302;-89
2021/04/07 09:48:45;;;;;;;2.35;1.50;;;19.90;28.70;;;;;;4833790;29;88098;-87
2021/04/07 09:51:17;;;;;;;2.40;2.00;;;19.80;28.00;;;;;;4833860;29;92003;-89
2021/04/07 09:53:44;;;;;;;3.83;1.88;;;19.10;28.30;;;;;;4834496;29;91148;-89
2021/04/07 09:56:09;;;;;;;3.58;3.30;;;22.20;27.90;;;;;;4850998;29;86852;-89
2021/04/07 09:58:52;;;;;;;2.20;2.00;;;21.90;27.90;;;;;;4833862;29;86961;-88
2021/04/07 10:01:19;;;;;;;1.90;1.80;;;22.50;26.20;;;;;;4850797;29;87718;-89
2021/04/07 10:04:03;;;;;;;3.60;3.30;;;20.90;26.70;;;;;;4851360;29;87311;-87
2021/04/07 10:06:28;;;;;;;3.00;2.70;;;19.00;27.90;;;;;;4852011;29;86598;-88
2021/04/07 10:08:59;;;;;;;2.80;2.60;;;18.90;28.10;;;;;;4851527;29;86819;-87
2021/04/07 10:11:25;;;;;;;1.80;1.70;;;17.50;29.10;;;;;;4850964;29;87098;-87
2021/04/07 10:13:50;;;;;;;2.28;2.10;;;15.80;31.70;;;;;;4850565;29;87917;-86
2021/04/07 10:16:16;;;;;;;3.00;2.80;;;16.40;29.70;;;;;;4850540;29;87098;-86
2021/04/07 10:18:45;;;;;;;3.25;3.05;;;18.50;29.90;;;;;;4850113;29;87063;-87
2021/04/07 10:21:15;;;;;;;3.20;3.00;;;18.20;29.60;;;;;;4849748;29;88287;-87
2021/04/07 10:23:42;;;;;;;3.15;2.90;;;17.70;28.70;;;;;;4851255;29;86970;-89
2021/04/07 10:26:09;;;;;;;1.90;1.80;;;17.80;29.00;;;;;;4852522;29;86502;-90
2021/04/07 10:28:57;;;;;;;3.80;3.50;;;15.70;32.90;;;;;;4835051;29;86600;-89
2021/04/07 10:31:24;;;;;;;9.18;3.55;;;13.20;35.20;;;;;;4852073;29;86511;-89
2021/04/07 10:34:03;;;;;;;3.15;1.92;;;13.00;35.00;;;;;;4852581;29;86650;-87
2021/04/07 10:36:29;;;;;;;2.05;1.70;;;12.10;34.60;;;;;;4852729;29;86941;-87
2021/04/07 10:38:59;;;;;;;1.77;1.50;;;10.90;36.90;;;;;;4851801;29;87841;-89
2021/04/07 10:41:26;;;;;;;3.63;3.40;;;10.40;37.60;;;;;;4834739;29;88045;-88
2021/04/07 10:43:52;;;;;;;2.10;1.83;;;10.40;38.10;;;;;;4852554;29;87050;-87
2021/04/07 10:46:30;;;;;;;2.22;1.65;;;10.50;38.50;;;;;;4850779;29;86856;-87
2021/04/07 10:49:00;;;;;;;2.15;1.80;;;10.40;38.30;;;;;;4843445;29;86793;-88
2021/04/07 10:51:29;;;;;;;1.88;1.70;;;10.30;38.70;;;;;;4826223;29;88689;-86
2021/04/07 10:53:59;;;;;;;2.10;1.90;;;10.10;40.50;;;;;;4842314;29;87324;-87
2021/04/07 10:56:27;;;;;;;1.90;1.80;;;9.70;41.20;;;;;;4834562;29;86007;-90
2021/04/07 10:58:59;;;;;;;3.75;3.45;;;9.50;43.40;;;;;;4851117;29;86554;-91
2021/04/07 11:01:33;;;;;;;2.17;1.58;;;9.60;41.10;;;;;;4831638;29;89273;-89
2021/04/07 11:04:15;;;;;;;4.30;2.00;;;10.70;40.50;;;;;;4844212;29;87912;-88
2021/04/07 11:06:41;;;;;;;2.28;2.08;;;12.20;37.70;;;;;;4832761;29;86849;-88
2021/04/07 11:09:10;;;;;;;2.25;2.05;;;12.90;36.30;;;;;;4846693;29;86883;-88
2021/04/07 11:11:42;;;;;;;4.93;2.17;;;13.90;35.40;;;;;;4850126;29;87713;-90
2021/04/07 11:14:10;;;;;;;3.20;2.30;;;14.20;34.40;;;;;;4832233;29;89787;-88
2021/04/07 11:16:35;;;;;;;1.73;1.60;;;13.30;36.00;;;;;;4850198;29;86946;-88
2021/04/07 11:19:12;;;;;;;2.00;1.90;;;12.30;36.60;;;;;;4848371;29;87025;-88
2021/04/07 11:21:38;;;;;;;1.70;1.60;;;11.30;38.30;;;;;;4833496;29;89604;-87
2021/04/07 11:24:04;;;;;;;2.05;1.90;;;10.60;38.30;;;;;;4846663;29;87633;-87
2021/04/07 11:26:30;;;;;;;3.33;1.80;;;11.20;38.00;;;;;;4849478;29;86974;-87
2021/04/07 11:28:55;;;;;;;2.15;1.60;;;12.30;36.20;;;;;;4856251;29;88106;-88
2021/04/07 11:31:24;;;;;;;3.80;3.13;;;;;;;;;;4855491;29;87701;-87
2021/04/07 11:33:52;;;;;;;5.28;2.20;;;13.60;31.20;;;;;;4854052;29;87118;-87
2021/04/07 11:36:25;;;;;;;2.50;1.70;;;13.50;33.50;;;;;;4850604;29;86858;-87
2021/04/07 11:38:59;;;;;;;2.45;1.90;;;12.80;33.50;;;;;;4840122;29;87292;-88
2021/04/07 11:46:36;;;;;;;3.30;3.10;;;12.00;36.00;;;;;;4850622;29;86303;-87
2021/04/07 11:49:03;;;;;;;1.95;1.80;;;12.00;36.50;;;;;;4850777;29;86858;-87
2021/04/07 11:51:29;;;;;;;2.55;1.90;;;11.70;36.30;;;;;;4850461;29;88457;-88
2021/04/07 11:53:55;;;;;;;7.10;4.45;;;;;;;;;;4850081;29;87480;-87
2021/04/07 11:56:21;;;;;;;6.28;2.50;;;10.30;39.20;;;;;;4834250;29;86917;-87
2021/04/07 11:58:47;;;;;;;6.18;2.30;;;9.70;42.10;;;;;;4850536;29;87133;-87
2021/04/07 12:01:13;;;;;;;2.45;1.70;;;9.60;42.50;;;;;;4849686;29;89435;-87
2021/04/07 12:03:39;;;;;;;2.42;1.75;;;9.10;41.60;;;;;;4849780;29;88109;-87
2021/04/07 12:06:04;;;;;;;2.53;1.50;;;9.20;42.10;;;;;;4850757;29;86501;-88
2021/04/07 12:08:30;;;;;;;2.72;1.60;;;8.80;41.30;;;;;;4850193;29;87055;-87
2021/04/07 12:11:00;;;;;;;3.05;1.77;;;8.60;41.70;;;;;;4851136;29;86355;-87
2021/04/07 12:13:26;;;;;;;2.03;1.85;;;8.60;41.70;;;;;;4849619;29;86786;-87
2021/04/07 12:15:53;;;;;;;1.85;1.60;;;9.20;41.00;;;;;;4832259;29;86873;-87
2021/04/07 12:18:18;;;;;;;1.80;1.70;;;9.40;40.30;;;;;;4848923;29;87690;-87
2021/04/07 12:20:44;;;;;;;2.58;1.80;;;9.10;42.90;;;;;;4849656;29;87245;-87
2021/04/07 12:23:10;;;;;;;2.20;1.80;;;8.90;42.70;;;;;;4833402;29;91438;-86
2021/04/07 12:25:36;;;;;;;2.10;1.83;;;8.60;43.20;;;;;;4852767;29;86959;-86
2021/04/07 12:28:02;;;;;;;2.03;1.83;;;8.70;44.30;;;;;;4826558;29;86397;-86
2021/04/07 12:30:27;;;;;;;2.22;1.80;;;8.80;44.30;;;;;;4833291;29;87260;-87
2021/04/07 12:32:53;;;;;;;2.25;1.80;;;8.70;44.10;;;;;;4834505;29;87048;-87
2021/04/07 12:36:03;;;;;;;1.70;1.60;;;8.80;43.20;;;;;;4836274;29;85658;-86
2021/04/07 12:38:31;;;;;;;2.15;1.70;;;9.40;41.70;;;;;;4834693;29;86919;-87
2021/04/07 12:40:59;;;;;;;1.80;1.70;;;10.50;41.00;;;;;;4846938;29;90862;-88
2021/04/07 12:43:25;;;;;;;2.30;2.10;;;11.80;39.80;;;;;;4833774;29;87827;-87
2021/04/07 12:45:51;;;;;;;2.67;2.45;;;12.30;38.40;;;;;;4836427;29;87085;-88
2021/04/07 12:48:16;;;;;;;1.67;1.58;;;12.60;38.20;;;;;;4837951;29;86905;-87
2021/04/07 12:50:42;;;;;;;2.95;1.90;;;12.80;37.40;;;;;;4850852;29;87342;-87
2021/04/07 12:53:08;;;;;;;2.65;1.92;;;12.80;36.80;;;;;;4851965;29;87231;-87
2021/04/07 12:55:34;;;;;;;2.10;1.90;;;12.10;37.90;;;;;;4852701;29;86809;-88
2021/04/07 12:58:00;;;;;;;3.20;2.58;;;10.80;41.00;;;;;;4852530;29;86924;-87
2021/04/07 13:00:27;;;;;;;2.25;2.05;;;10.10;42.30;;;;;;4856772;29;86482;-88
2021/04/07 13:02:53;;;;;;;2.30;2.10;;;9.70;43.00;;;;;;4856316;29;86817;-87
2021/04/07 13:05:20;;;;;;;2.40;2.20;;;9.30;44.10;;;;;;4856760;29;86655;-87
2021/04/07 13:07:46;;;;;;;2.15;1.80;;;9.80;43.60;;;;;;4855978;29;87681;-87
2021/04/07 13:10:13;;;;;;;3.05;2.17;;;10.70;41.80;;;;;;4856475;29;87682;-87
2021/04/07 13:12:39;;;;;;;2.55;2.13;;;11.60;41.00;;;;;;4856082;29;87099;-87
2021/04/07 13:15:05;;;;;;;2.20;2.00;;;11.90;39.50;;;;;;4856156;29;87023;-87
2021/04/07 13:17:31;;;;;;;3.03;2.20;;;11.60;39.90;;;;;;4856232;29;86895;-87
2021/04/07 13:19:57;;;;;;;2.17;1.98;;;11.60;39.90;;;;;;4852772;29;87884;-88
2021/04/07 13:22:23;;;;;;;2.20;2.00;;;11.40;39.90;;;;;;4837698;29;86853;-88
2021/04/07 13:24:50;;;;;;;1.95;1.73;;;10.60;40.90;;;;;;4837920;29;86063;-87
2021/04/07 13:27:16;;;;;;;2.10;1.95;;;10.70;41.40;;;;;;4837239;29;86879;-88
2021/04/07 13:29:42;;;;;;;2.20;2.00;;;10.20;39.80;;;;;;4851640;29;87413;-87
2021/04/07 13:32:08;;;;;;;3.08;2.08;;;9.90;40.20;;;;;;4833938;29;90844;-87
2021/04/07 13:34:46;;;;;;;2.67;2.00;;;10.00;40.50;;;;;;4851797;29;86994;-87
2021/04/07 13:42:58;;;;;;;2.67;1.88;;;11.10;38.60;;;;;;4831034;29;87065;-87
2021/04/07 13:45:26;;;;;;;3.28;2.83;;;8.60;43.30;;;;;;4834614;29;86265;-87
2021/04/07 13:47:54;;;;;;;3.80;2.25;;;8.50;44.20;;;;;;4832342;29;86981;-88
2021/04/07 13:50:20;;;;;;;3.17;2.08;;;7.10;52.10;;;;;;4845782;29;87088;-87
2021/04/07 13:52:49;;;;;;;3.08;2.30;;;;;;;;;;4851682;29;87180;-87
2021/04/07 13:55:17;;;;;;;2.65;2.05;;;6.60;50.30;;;;;;4834965;29;87021;-87
2021/04/07 13:57:43;;;;;;;2.38;1.75;;;6.60;50.70;;;;;;4850820;29;88038;-87
2021/04/07 14:00:10;;;;;;;2.20;2.00;;;7.40;50.20;;;;;;4834048;29;91039;-87
2021/04/07 14:02:37;;;;;;;2.00;1.80;;;8.30;49.20;;;;;;4838403;29;90615;-87
2021/04/07 14:05:03;;;;;;;2.00;1.80;;;9.00;47.40;;;;;;4853518;29;86714;-87
2021/04/07 14:07:29;;;;;;;3.72;1.83;;;9.70;44.50;;;;;;4853985;29;87039;-86
2021/04/07 14:09:55;;;;;;;2.17;1.98;;;10.10;43.20;;;;;;4841063;29;88800;-86
2021/04/07 14:12:28;;;;;;;1.95;1.80;;;10.10;42.40;;;;;;4852331;29;87362;-87
2021/04/07 14:14:54;;;;;;;2.47;1.67;;;10.00;42.30;;;;;;4853013;29;86120;-87
2021/04/07 14:17:20;;;;;;;3.70;1.90;;;9.80;43.30;;;;;;4851097;29;86613;-86
2021/04/07 14:19:46;;;;;;;3.03;2.17;;;9.60;42.30;;;;;;4851673;29;88177;-86
2021/04/07 14:22:11;;;;;;;2.05;1.63;;;9.50;42.60;;;;;;4851230;29;88052;-86
2021/04/07 14:24:37;;;;;;;1.90;1.80;;;9.40;42.90;;;;;;4851383;29;87025;-86
2021/04/07 14:27:04;;;;;;;1.92;1.83;;;9.30;42.40;;;;;;4850645;29;86940;-87
2021/04/07 14:29:31;;;;;;;2.33;1.92;;;8.80;42.60;;;;;;4847964;29;87861;-87
2021/04/07 14:31:57;;;;;;;2.10;1.90;;;8.40;44.30;;;;;;4832362;29;87766;-86
2021/04/07 14:34:23;;;;;;;1.92;1.83;;;8.00;46.30;;;;;;4845748;29;87009;-87
2021/04/07 14:36:50;;;;;;;1.80;1.70;;;7.70;47.00;;;;;;4833934;29;87178;-87
2021/04/07 14:39:17;;;;;;;3.10;2.10;;;7.60;46.70;;;;;;4850981;29;86119;-88
2021/04/07 14:41:43;;;;;;;2.60;2.40;;;;;;;;;;4856021;29;87087;-87
2021/04/07 14:44:10;;;;;;;2.00;1.88;;;8.30;46.70;;;;;;4852863;29;86533;-87
2021/04/07 14:46:36;;;;;;;2.25;2.05;;;8.20;46.10;;;;;;4832562;29;87851;-87
2021/04/07 14:49:01;;;;;;;2.03;1.83;;;8.20;46.80;;;;;;4850166;29;88671;-87
2021/04/07 14:51:34;;;;;;;1.73;1.63;;;8.20;47.00;;;;;;4830217;29;89053;-87
2021/04/07 14:54:28;;;;;;;2.88;1.92;;;8.20;46.10;;;;;;4838163;29;86968;-87
2021/04/07 14:56:48;;;;;;;2.45;2.00;;;7.90;45.50;;;;;;4838109;29;86560;-87
2021/04/07 14:59:14;;;;;;;1.85;1.70;;;7.30;48.10;;;;;;4831748;29;89040;-87
2021/04/07 15:01:41;;;;;;;2.13;1.88;;;6.70;49.00;;;;;;4829173;29;88705;-87
2021/04/07 15:04:06;;;;;;;3.58;2.08;;;6.40;50.40;;;;;;4833988;29;86171;-87
2021/04/07 15:06:32;;;;;;;3.10;2.10;;;6.60;50.60;;;;;;4833725;29;86988;-87
2021/04/07 15:08:58;;;;;;;2.30;1.90;;;6.70;50.30;;;;;;4847865;29;87666;-87
2021/04/07 15:11:24;;;;;;;3.13;2.00;;;;;;;;;;4845421;29;87940;-88
2021/04/07 15:13:50;;;;;;;3.08;1.90;;;;;;;;;;4851281;29;86934;-88
2021/04/07 15:16:17;;;;;;;3.40;2.00;;;5.70;51.70;;;;;;4850159;29;87076;-87
2021/04/07 15:18:43;;;;;;;2.40;2.20;;;;;;;;;;4849852;29;87679;-88
2021/04/07 15:21:21;;;;;;;2.20;1.70;;;5.60;52.10;;;;;;4848684;29;88046;-88
2021/04/07 15:23:49;;;;;;;2.50;1.90;;;5.60;53.70;;;;;;4850188;29;86953;-88
2021/04/07 15:26:16;;;;;;;2.33;2.13;;;5.80;54.00;;;;;;4850329;29;86418;-87
2021/04/07 15:28:43;;;;;;;1.98;1.77;;;;;;;;;;4850446;29;87010;-88
2021/04/07 15:31:25;;;;;;;1.65;1.55;;;6.00;52.10;;;;;;4831709;29;88387;-88
2021/04/07 15:33:53;;;;;;;1.92;1.80;;;6.00;53.60;;;;;;4850436;29;86782;-88
2021/04/07 15:36:28;;;;;;;2.30;2.10;;;5.90;51.90;;;;;;4849787;29;87881;-87
2021/04/07 15:38:58;;;;;;;1.90;1.80;;;5.80;53.10;;;;;;4831847;29;89098;-87
2021/04/07 15:41:24;;;;;;;2.03;1.73;;;5.70;52.70;;;;;;4837948;29;88529;-88
2021/04/07 15:43:51;;;;;;;2.17;1.90;;;;;;;;;;4848522;29;86467;-88
2021/04/07 15:46:17;;;;;;;2.47;1.90;;;5.50;53.60;;;;;;4821272;29;86881;-86
2021/04/07 15:48:51;;;;;;;2.30;1.80;;;5.50;53.60;;;;;;4851739;29;87375;-87
2021/04/07 15:51:18;;;;;;;2.78;1.90;;;5.60;54.20;;;;;;4849662;29;86882;-87
2021/04/07 15:53:44;;;;;;;1.80;1.70;;;5.80;53.70;;;;;;4850237;29;87121;-87
2021/04/07 15:56:10;;;;;;;2.17;1.85;;;6.00;52.90;;;;;;4833414;29;86966;-86
2021/04/07 15:58:36;;;;;;;2.92;2.05;;;5.90;54.60;;;;;;4848455;29;87092;-86
2021/04/07 16:01:03;;;;;;;3.22;1.80;;;5.70;54.50;;;;;;4848356;29;87868;-86
2021/04/07 16:03:28;;;;;;;1.83;1.67;;;5.50;55.00;;;;;;4830028;29;86954;-88